createdAt,value
2022-12-05T00:01:52.593Z,4.90
2022-12-05T00:06:46.235Z,5.37
2022-12-05T00:11:43.020Z,5.63
2022-12-05T00:16:38.715Z,5.00
2022-12-05T00:21:38.014Z,11.87
2022-12-05T00:26:34.093Z,8.57
2022-12-05T00:31:30.012Z,7.60
2022-12-05T00:36:26.178Z,8.20
2022-12-05T00:41:25.052Z,7.40
2022-12-05T00:46:20.455Z,7.50
2022-12-05T00:51:17.212Z,7.63
2022-12-05T00:56:12.850Z,5.97
2022-12-05T01:01:14.953Z,6.70
2022-12-05T01:06:10.681Z,6.30
2022-12-05T01:11:08.014Z,6.60
2022-12-05T01:16:07.833Z,5.80
2022-12-05T01:21:01.323Z,5.28
2022-12-05T01:25:54.768Z,5.30
2022-12-05T01:30:51.431Z,5.13
2022-12-05T01:35:47.165Z,6.13
2022-12-05T01:40:42.895Z,5.60
2022-12-05T01:45:38.419Z,6.10
2022-12-05T01:50:34.610Z,5.83
2022-12-05T01:55:27.939Z,6.83
2022-12-05T02:00:24.671Z,6.23
2022-12-05T02:05:21.802Z,5.40
2022-12-05T02:10:20.809Z,5.20
2022-12-05T02:15:29.691Z,5.50
2022-12-05T02:20:35.620Z,6.30
2022-12-05T02:26:03.102Z,7.00
2022-12-05T02:31:01.725Z,6.33
2022-12-05T02:36:07.347Z,6.70
2022-12-05T02:41:10.851Z,6.40
2022-12-05T02:46:12.915Z,7.13
2022-12-05T02:51:10.743Z,7.77
2022-12-05T02:56:05.507Z,7.73
2022-12-05T03:00:59.995Z,7.07
2022-12-05T03:06:04.890Z,6.93
2022-12-05T03:11:00.099Z,7.17
2022-12-05T03:16:03.316Z,7.07
2022-12-05T03:21:05.532Z,6.10
2022-12-05T03:26:12.366Z,7.30
2022-12-05T03:31:10.525Z,8.33
2022-12-05T03:36:13.276Z,8.63
2022-12-05T03:41:10.860Z,7.27
2022-12-05T03:46:12.645Z,7.27
2022-12-05T03:51:13.340Z,6.70
2022-12-05T04:01:08.381Z,6.70
2022-12-05T04:06:04.516Z,7.30
2022-12-05T04:11:04.627Z,7.63
2022-12-05T04:16:23.033Z,7.43
2022-12-05T04:21:36.550Z,7.83
2022-12-05T04:26:33.910Z,8.23
2022-12-05T04:31:35.548Z,9.80
2022-12-05T04:36:35.029Z,10.50
2022-12-05T04:41:35.474Z,8.60
2022-12-05T04:46:32.600Z,9.65
2022-12-05T04:51:30.058Z,8.13
2022-12-05T04:56:29.710Z,8.47
2022-12-05T05:01:32.173Z,11.00
2022-12-05T05:06:26.763Z,8.43
2022-12-05T05:11:22.480Z,9.47
2022-12-05T05:16:31.377Z,8.77
2022-12-05T05:21:31.955Z,8.93
2022-12-05T05:26:27.806Z,14.87
2022-12-05T05:36:33.217Z,9.37
2022-12-05T05:41:31.271Z,9.43
2022-12-05T05:46:27.578Z,9.20
2022-12-05T05:51:23.796Z,10.43
2022-12-05T05:56:23.443Z,10.43
2022-12-05T06:01:20.488Z,9.07
2022-12-05T06:06:17.034Z,8.30
2022-12-05T06:11:12.594Z,8.23
2022-12-05T06:16:09.065Z,19.30
2022-12-05T06:21:02.725Z,11.20
2022-12-05T06:25:57.624Z,10.00
2022-12-05T06:30:50.963Z,10.30
2022-12-05T06:35:48.217Z,16.07
2022-12-05T06:40:42.618Z,8.53
2022-12-05T06:45:35.958Z,8.57
2022-12-05T06:50:30.355Z,8.57
2022-12-05T06:55:25.023Z,8.93
2022-12-05T07:00:36.336Z,9.80
2022-12-05T07:05:29.621Z,9.00
2022-12-05T07:10:24.388Z,8.93
2022-12-05T07:15:17.855Z,8.50
2022-12-05T07:20:12.860Z,8.43
2022-12-05T07:25:06.760Z,8.87
2022-12-05T07:30:02.019Z,10.53
2022-12-05T07:34:56.272Z,10.30
2022-12-05T07:39:50.301Z,10.00
2022-12-05T07:44:49.592Z,9.07
2022-12-05T07:49:44.300Z,9.10
2022-12-05T07:54:37.517Z,10.17
2022-12-05T07:59:30.907Z,10.57
2022-12-05T08:04:26.334Z,10.47
2022-12-05T08:09:21.083Z,8.33
2022-12-05T08:14:14.519Z,9.50
2022-12-05T08:19:13.029Z,9.70
2022-12-05T08:24:08.039Z,10.37
2022-12-05T08:29:04.445Z,9.97
2022-12-05T08:33:59.466Z,9.47
2022-12-05T08:38:58.083Z,9.63
2022-12-05T08:43:51.435Z,9.60
2022-12-05T08:48:46.197Z,11.10
2022-12-05T08:53:44.342Z,10.77
2022-12-05T08:58:40.260Z,10.23
2022-12-05T09:03:33.496Z,12.80
2022-12-05T09:08:28.034Z,10.93
2022-12-05T09:13:21.423Z,10.27
2022-12-05T09:18:15.415Z,9.23
2022-12-05T09:23:14.464Z,9.77
2022-12-05T09:33:06.821Z,9.00
2022-12-05T09:38:00.122Z,10.30
2022-12-05T09:43:00.390Z,10.83
2022-12-05T09:48:00.766Z,11.07
2022-12-05T09:53:05.421Z,11.77
2022-12-05T09:58:01.723Z,11.70
2022-12-05T10:03:04.069Z,13.70
2022-12-05T10:08:11.855Z,14.70
2022-12-05T10:13:23.325Z,10.77
2022-12-05T10:18:28.887Z,11.90
2022-12-05T10:23:55.421Z,12.80
2022-12-05T10:28:48.073Z,10.93
2022-12-05T10:33:48.701Z,12.23
2022-12-05T10:43:38.551Z,11.07
2022-12-05T10:48:36.183Z,10.80
2022-12-05T10:53:39.418Z,11.20
2022-12-05T10:58:32.920Z,11.70
2022-12-05T11:03:35.557Z,12.70
2022-12-05T11:09:05.344Z,14.27
2022-12-05T11:13:56.319Z,11.97
2022-12-05T11:18:58.961Z,24.23
2022-12-05T11:23:53.770Z,14.33
2022-12-05T11:28:47.498Z,13.00
2022-12-05T11:33:41.707Z,12.03
2022-12-05T11:38:35.383Z,12.00
2022-12-05T11:43:54.924Z,11.43
2022-12-05T11:49:01.645Z,11.90
2022-12-05T11:54:42.091Z,11.30
2022-12-05T12:00:04.049Z,10.85
2022-12-05T12:05:17.467Z,12.88
2022-12-05T12:10:20.947Z,11.75
2022-12-05T12:15:35.727Z,11.03
2022-12-05T12:20:43.226Z,10.52
2022-12-05T12:25:46.105Z,11.60
2022-12-05T12:30:55.567Z,12.70
2022-12-05T12:35:57.464Z,12.07
2022-12-05T12:40:54.857Z,10.63
2022-12-05T12:46:14.407Z,13.52
2022-12-05T12:51:13.447Z,11.57
2022-12-05T12:56:22.346Z,11.60
2022-12-05T13:01:31.057Z,10.75
2022-12-05T13:06:30.399Z,11.90
2022-12-05T13:11:25.109Z,12.70
2022-12-05T13:16:45.572Z,11.02
2022-12-05T13:21:39.977Z,12.27
2022-12-05T13:26:36.131Z,13.63
2022-12-05T13:31:42.794Z,13.07
2022-12-05T13:36:59.324Z,13.13
2022-12-05T13:42:12.530Z,14.30
2022-12-05T13:47:19.009Z,16.53
2022-12-05T13:52:18.263Z,22.33
2022-12-05T13:57:47.146Z,17.30
2022-12-05T14:02:55.936Z,15.57
2022-12-05T14:07:50.623Z,14.52
2022-12-05T14:12:54.625Z,14.73
2022-12-05T14:17:48.046Z,18.33
2022-12-05T14:23:10.863Z,19.67
2022-12-05T14:28:23.953Z,21.65
2022-12-05T14:33:19.198Z,22.50
2022-12-05T14:38:27.422Z,20.98
2022-12-05T14:43:26.931Z,20.10
2022-12-05T14:48:34.495Z,21.33
2022-12-05T14:53:46.098Z,19.38
2022-12-05T14:58:46.329Z,21.73
2022-12-05T15:03:44.147Z,22.35
2022-12-05T15:08:51.111Z,23.80
2022-12-05T15:13:45.801Z,21.05
2022-12-05T15:18:46.986Z,24.38
2022-12-05T15:24:03.506Z,21.55
2022-12-05T15:29:06.837Z,21.27
2022-12-05T15:34:07.078Z,29.45
2022-12-05T15:39:32.406Z,25.48
2022-12-05T15:44:42.352Z,23.83
2022-12-05T15:49:42.519Z,23.63
2022-12-05T15:54:55.140Z,28.33
2022-12-05T16:00:26.930Z,21.60
2022-12-05T16:05:39.413Z,24.70
2022-12-05T16:10:47.220Z,21.73
2022-12-05T16:16:07.851Z,22.17
2022-12-05T16:21:39.571Z,22.20
2022-12-05T16:26:38.725Z,24.65
2022-12-05T16:31:35.699Z,24.00
2022-12-05T16:36:57.092Z,25.48
2022-12-05T16:46:52.468Z,25.48
2022-12-05T16:52:07.061Z,19.33
2022-12-05T16:57:46.557Z,21.80
2022-12-05T17:02:42.919Z,21.70
2022-12-05T17:07:38.969Z,20.83
2022-12-05T17:12:35.390Z,23.38
2022-12-05T17:17:29.261Z,22.60
2022-12-05T17:22:26.325Z,25.30
2022-12-05T17:27:24.563Z,21.33
2022-12-05T17:32:19.923Z,40.35
2022-12-05T17:37:13.650Z,18.95
2022-12-05T17:42:15.964Z,19.70
2022-12-05T17:47:12.858Z,20.70
2022-12-05T17:52:21.538Z,21.25
2022-12-05T17:57:31.094Z,23.23
2022-12-05T18:02:27.855Z,24.83
2022-12-05T18:07:23.376Z,20.17
2022-12-05T18:12:16.903Z,22.98
2022-12-05T18:17:36.373Z,30.77
2022-12-05T18:22:40.481Z,31.63
2022-12-05T18:27:36.863Z,35.78
2022-12-05T18:32:31.887Z,23.10
2022-12-05T18:37:29.481Z,19.48
2022-12-05T18:42:32.061Z,17.55
2022-12-05T18:47:28.818Z,19.27
2022-12-05T18:52:27.726Z,18.20
2022-12-05T18:57:21.274Z,23.00
2022-12-05T19:02:15.329Z,25.17
2022-12-05T19:07:10.831Z,24.83
2022-12-05T19:12:05.929Z,32.25
2022-12-05T19:17:08.000Z,22.92
2022-12-05T19:22:10.021Z,19.52
2022-12-05T19:27:08.902Z,20.58
2022-12-05T19:32:11.207Z,18.02
2022-12-05T19:37:20.524Z,23.30
2022-12-05T19:42:14.191Z,18.85
2022-12-05T19:47:18.284Z,18.65
2022-12-05T19:52:18.244Z,20.33
2022-12-05T19:57:18.212Z,23.20
2022-12-05T20:02:26.698Z,21.58
2022-12-05T20:07:25.689Z,20.73
2022-12-05T20:12:25.010Z,19.52
2022-12-05T20:17:27.426Z,19.15
2022-12-05T20:22:23.618Z,19.02
2022-12-05T20:27:19.265Z,18.10
2022-12-05T20:32:22.162Z,18.85
2022-12-05T20:37:24.629Z,20.30
2022-12-05T20:42:44.999Z,17.45
2022-12-05T20:47:45.206Z,18.20
2022-12-05T20:52:53.829Z,21.27
2022-12-05T20:58:01.249Z,19.60
2022-12-05T21:02:59.450Z,20.38
2022-12-05T21:07:54.706Z,18.50
2022-12-05T21:12:59.045Z,17.60
2022-12-05T21:17:56.242Z,18.33
2022-12-05T21:22:53.488Z,20.50
2022-12-05T21:27:47.308Z,19.30
2022-12-05T21:32:42.514Z,18.35
2022-12-05T21:37:41.427Z,20.77
2022-12-05T21:42:41.187Z,20.00
2022-12-05T21:47:36.892Z,20.13
2022-12-05T21:52:39.519Z,18.27
2022-12-05T21:57:39.091Z,17.23
2022-12-05T22:02:34.018Z,18.80
2022-12-05T22:07:29.378Z,17.67
2022-12-05T22:12:27.164Z,17.05
2022-12-05T22:17:25.111Z,18.13
2022-12-05T22:22:21.519Z,19.08
2022-12-05T22:27:26.643Z,18.80
2022-12-05T22:32:27.936Z,19.52
2022-12-05T22:37:21.596Z,18.13
2022-12-05T22:42:18.436Z,16.98
2022-12-05T22:47:14.566Z,17.73
2022-12-05T22:52:13.063Z,18.65
2022-12-05T22:57:06.595Z,18.35
2022-12-05T23:02:00.282Z,22.23
2022-12-05T23:06:57.629Z,18.92
2022-12-05T23:11:55.766Z,19.80
2022-12-05T23:16:51.685Z,20.60
2022-12-05T23:21:45.318Z,20.50
2022-12-05T23:26:42.284Z,20.60
2022-12-05T23:31:39.676Z,21.20
2022-12-05T23:36:34.410Z,22.13
2022-12-05T23:41:29.287Z,22.85
2022-12-05T23:46:27.207Z,20.88
2022-12-05T23:51:28.608Z,21.10
2022-12-05T23:56:26.429Z,19.27
